sensor_id;sensor_type;location;lat;lon;timestamp;P1;durP1;ratioP1;P2;durP2;ratioP2
4222;SDS011;2125;51.436;14.138;2022-12-18T00:02:00;32.33;;;9.77;;
4222;SDS011;2125;51.436;14.138;2022-12-18T00:04:27;36.07;;;9.67;;
4222;SDS011;2125;51.436;14.138;2022-12-18T00:06:54;35.37;;;10.37;;
4222;SDS011;2125;51.436;14.138;2022-12-18T00:09:20;33.77;;;9.50;;
4222;SDS011;2125;51.436;14.138;2022-12-18T00:11:47;33.33;;;9.00;;
4222;SDS011;2125;51.436;14.138;2022-12-18T00:14:14;26.60;;;8.27;;
4222;SDS011;2125;51.436;14.138;2022-12-18T00:16:43;29.60;;;9.03;;
4222;SDS011;2125;51.436;14.138;2022-12-18T00:19:11;26.83;;;7.77;;
4222;SDS011;2125;51.436;14.138;2022-12-18T00:21:40;37.30;;;9.47;;
4222;SDS011;2125;51.436;14.138;2022-12-18T00:24:09;32.53;;;9.40;;
4222;SDS011;2125;51.436;14.138;2022-12-18T00:26:43;24.20;;;7.10;;
4222;SDS011;2125;51.436;14.138;2022-12-18T00:29:11;24.73;;;7.53;;
4222;SDS011;2125;51.436;14.138;2022-12-18T00:31:39;28.67;;;9.53;;
4222;SDS011;2125;51.436;14.138;2022-12-18T00:34:08;32.70;;;9.60;;
4222;SDS011;2125;51.436;14.138;2022-12-18T00:36:39;33.40;;;10.67;;
4222;SDS011;2125;51.436;14.138;2022-12-18T00:39:07;34.60;;;10.20;;
4222;SDS011;2125;51.436;14.138;2022-12-18T00:41:35;24.60;;;8.03;;
4222;SDS011;2125;51.436;14.138;2022-12-18T00:44:19;36.83;;;9.30;;
4222;SDS011;2125;51.436;14.138;2022-12-18T00:46:46;28.87;;;9.23;;
4222;SDS011;2125;51.436;14.138;2022-12-18T00:49:15;31.47;;;8.83;;
4222;SDS011;2125;51.436;14.138;2022-12-18T00:51:44;28.07;;;8.40;;
4222;SDS011;2125;51.436;14.138;2022-12-18T00:54:10;31.97;;;9.10;;
4222;SDS011;2125;51.436;14.138;2022-12-18T00:56:38;31.17;;;9.27;;
4222;SDS011;2125;51.436;14.138;2022-12-18T00:59:05;33.60;;;8.17;;
4222;SDS011;2125;51.436;14.138;2022-12-18T01:01:31;24.70;;;7.20;;
4222;SDS011;2125;51.436;14.138;2022-12-18T01:03:59;27.00;;;7.90;;
4222;SDS011;2125;51.436;14.138;2022-12-18T01:06:26;26.97;;;9.50;;
4222;SDS011;2125;51.436;14.138;2022-12-18T01:08:54;36.23;;;8.70;;
4222;SDS011;2125;51.436;14.138;2022-12-18T01:11:20;34.37;;;8.10;;
4222;SDS011;2125;51.436;14.138;2022-12-18T01:13:47;29.00;;;7.70;;
4222;SDS011;2125;51.436;14.138;2022-12-18T01:16:14;24.57;;;6.90;;
4222;SDS011;2125;51.436;14.138;2022-12-18T01:18:42;28.97;;;7.67;;
4222;SDS011;2125;51.436;14.138;2022-12-18T01:21:10;26.50;;;8.30;;
4222;SDS011;2125;51.436;14.138;2022-12-18T01:23:39;27.87;;;8.90;;
4222;SDS011;2125;51.436;14.138;2022-12-18T01:26:08;25.40;;;7.20;;
4222;SDS011;2125;51.436;14.138;2022-12-18T01:28:36;29.97;;;8.17;;
4222;SDS011;2125;51.436;14.138;2022-12-18T01:31:13;29.90;;;6.33;;
4222;SDS011;2125;51.436;14.138;2022-12-18T01:33:43;33.47;;;8.83;;
4222;SDS011;2125;51.436;14.138;2022-12-18T01:36:14;30.07;;;7.87;;
4222;SDS011;2125;51.436;14.138;2022-12-18T01:38:42;27.27;;;8.03;;
4222;SDS011;2125;51.436;14.138;2022-12-18T01:41:10;29.90;;;8.57;;
4222;SDS011;2125;51.436;14.138;2022-12-18T01:43:41;30.70;;;7.97;;
4222;SDS011;2125;51.436;14.138;2022-12-18T01:46:09;21.70;;;6.57;;
4222;SDS011;2125;51.436;14.138;2022-12-18T01:48:36;22.40;;;6.20;;
4222;SDS011;2125;51.436;14.138;2022-12-18T01:51:04;24.07;;;7.80;;
4222;SDS011;2125;51.436;14.138;2022-12-18T01:53:33;26.60;;;7.27;;
4222;SDS011;2125;51.436;14.138;2022-12-18T01:56:00;25.57;;;8.70;;
4222;SDS011;2125;51.436;14.138;2022-12-18T01:58:37;39.10;;;8.50;;
4222;SDS011;2125;51.436;14.138;2022-12-18T02:01:08;34.57;;;9.80;;
4222;SDS011;2125;51.436;14.138;2022-12-18T02:03:35;50.30;;;17.47;;
4222;SDS011;2125;51.436;14.138;2022-12-18T02:06:05;46.33;;;10.20;;
4222;SDS011;2125;51.436;14.138;2022-12-18T02:08:37;27.47;;;8.40;;
4222;SDS011;2125;51.436;14.138;2022-12-18T02:11:10;28.73;;;7.87;;
4222;SDS011;2125;51.436;14.138;2022-12-18T02:13:46;23.30;;;7.70;;
4222;SDS011;2125;51.436;14.138;2022-12-18T02:16:19;36.30;;;11.33;;
4222;SDS011;2125;51.436;14.138;2022-12-18T02:18:50;33.33;;;8.50;;
4222;SDS011;2125;51.436;14.138;2022-12-18T02:21:24;24.67;;;8.90;;
4222;SDS011;2125;51.436;14.138;2022-12-18T02:24:01;32.80;;;10.87;;
4222;SDS011;2125;51.436;14.138;2022-12-18T02:26:40;27.73;;;7.10;;
4222;SDS011;2125;51.436;14.138;2022-12-18T02:29:11;39.83;;;9.80;;
4222;SDS011;2125;51.436;14.138;2022-12-18T02:31:42;26.00;;;7.70;;
4222;SDS011;2125;51.436;14.138;2022-12-18T02:34:11;30.03;;;9.70;;
4222;SDS011;2125;51.436;14.138;2022-12-18T02:36:40;33.80;;;9.67;;
4222;SDS011;2125;51.436;14.138;2022-12-18T02:39:09;26.63;;;9.27;;
4222;SDS011;2125;51.436;14.138;2022-12-18T02:41:40;29.47;;;8.83;;
4222;SDS011;2125;51.436;14.138;2022-12-18T02:44:07;28.57;;;8.50;;
4222;SDS011;2125;51.436;14.138;2022-12-18T02:46:36;27.43;;;8.60;;
4222;SDS011;2125;51.436;14.138;2022-12-18T02:49:16;32.40;;;10.40;;
4222;SDS011;2125;51.436;14.138;2022-12-18T02:52:05;25.90;;;6.90;;
4222;SDS011;2125;51.436;14.138;2022-12-18T02:54:41;37.17;;;10.57;;
4222;SDS011;2125;51.436;14.138;2022-12-18T02:57:21;22.73;;;7.97;;
4222;SDS011;2125;51.436;14.138;2022-12-18T02:59:56;34.90;;;10.50;;
4222;SDS011;2125;51.436;14.138;2022-12-18T03:02:29;37.33;;;9.67;;
4222;SDS011;2125;51.436;14.138;2022-12-18T03:05:04;25.60;;;8.60;;
4222;SDS011;2125;51.436;14.138;2022-12-18T03:07:37;22.53;;;6.90;;
4222;SDS011;2125;51.436;14.138;2022-12-18T03:10:07;31.60;;;7.70;;
4222;SDS011;2125;51.436;14.138;2022-12-18T03:12:40;30.80;;;8.13;;
4222;SDS011;2125;51.436;14.138;2022-12-18T03:15:13;28.77;;;8.63;;
4222;SDS011;2125;51.436;14.138;2022-12-18T03:17:44;17.47;;;7.07;;
4222;SDS011;2125;51.436;14.138;2022-12-18T03:20:17;24.27;;;6.47;;
4222;SDS011;2125;51.436;14.138;2022-12-18T03:22:47;30.50;;;8.43;;
4222;SDS011;2125;51.436;14.138;2022-12-18T03:25:17;26.07;;;8.13;;
4222;SDS011;2125;51.436;14.138;2022-12-18T03:27:48;23.40;;;8.07;;
4222;SDS011;2125;51.436;14.138;2022-12-18T03:30:17;35.63;;;9.30;;
4222;SDS011;2125;51.436;14.138;2022-12-18T03:32:46;25.90;;;8.53;;
4222;SDS011;2125;51.436;14.138;2022-12-18T03:35:18;38.80;;;8.77;;
4222;SDS011;2125;51.436;14.138;2022-12-18T03:37:48;25.17;;;8.07;;
4222;SDS011;2125;51.436;14.138;2022-12-18T03:40:15;23.43;;;7.40;;
4222;SDS011;2125;51.436;14.138;2022-12-18T03:42:44;24.57;;;7.70;;
4222;SDS011;2125;51.436;14.138;2022-12-18T03:45:18;27.10;;;8.30;;
4222;SDS011;2125;51.436;14.138;2022-12-18T03:47:51;28.50;;;8.97;;
4222;SDS011;2125;51.436;14.138;2022-12-18T03:50:26;26.60;;;9.20;;
4222;SDS011;2125;51.436;14.138;2022-12-18T03:53:02;37.73;;;9.50;;
4222;SDS011;2125;51.436;14.138;2022-12-18T03:55:36;22.30;;;7.47;;
4222;SDS011;2125;51.436;14.138;2022-12-18T03:58:05;25.70;;;7.53;;
4222;SDS011;2125;51.436;14.138;2022-12-18T04:00:34;29.77;;;9.50;;
4222;SDS011;2125;51.436;14.138;2022-12-18T04:03:01;18.30;;;7.10;;
4222;SDS011;2125;51.436;14.138;2022-12-18T04:05:29;40.13;;;9.70;;
4222;SDS011;2125;51.436;14.138;2022-12-18T04:07:59;28.53;;;8.63;;
4222;SDS011;2125;51.436;14.138;2022-12-18T04:10:27;27.77;;;9.20;;
4222;SDS011;2125;51.436;14.138;2022-12-18T04:12:55;41.77;;;9.27;;
4222;SDS011;2125;51.436;14.138;2022-12-18T04:15:24;26.20;;;8.03;;
4222;SDS011;2125;51.436;14.138;2022-12-18T04:17:51;20.43;;;7.20;;
4222;SDS011;2125;51.436;14.138;2022-12-18T04:20:17;33.97;;;8.00;;
4222;SDS011;2125;51.436;14.138;2022-12-18T04:22:44;23.20;;;6.77;;
4222;SDS011;2125;51.436;14.138;2022-12-18T04:25:11;28.47;;;8.60;;
4222;SDS011;2125;51.436;14.138;2022-12-18T04:27:37;29.83;;;8.10;;
4222;SDS011;2125;51.436;14.138;2022-12-18T04:30:05;25.17;;;7.00;;
4222;SDS011;2125;51.436;14.138;2022-12-18T04:32:34;37.10;;;11.23;;
4222;SDS011;2125;51.436;14.138;2022-12-18T04:35:01;28.37;;;7.67;;
4222;SDS011;2125;51.436;14.138;2022-12-18T04:37:29;37.70;;;10.47;;
4222;SDS011;2125;51.436;14.138;2022-12-18T04:39:55;51.80;;;14.80;;
4222;SDS011;2125;51.436;14.138;2022-12-18T04:42:22;38.10;;;13.07;;
4222;SDS011;2125;51.436;14.138;2022-12-18T04:44:48;27.03;;;6.93;;
4222;SDS011;2125;51.436;14.138;2022-12-18T04:47:15;30.67;;;8.17;;
4222;SDS011;2125;51.436;14.138;2022-12-18T04:49:43;25.03;;;7.73;;
4222;SDS011;2125;51.436;14.138;2022-12-18T04:52:09;32.90;;;9.20;;
4222;SDS011;2125;51.436;14.138;2022-12-18T04:54:36;27.40;;;7.80;;
4222;SDS011;2125;51.436;14.138;2022-12-18T04:57:03;19.33;;;5.23;;
4222;SDS011;2125;51.436;14.138;2022-12-18T04:59:29;31.60;;;7.57;;
4222;SDS011;2125;51.436;14.138;2022-12-18T05:01:56;34.67;;;8.40;;
4222;SDS011;2125;51.436;14.138;2022-12-18T05:04:22;36.73;;;10.37;;
4222;SDS011;2125;51.436;14.138;2022-12-18T05:06:50;34.50;;;9.83;;
4222;SDS011;2125;51.436;14.138;2022-12-18T05:09:17;24.37;;;7.67;;
4222;SDS011;2125;51.436;14.138;2022-12-18T05:11:45;30.83;;;7.50;;
4222;SDS011;2125;51.436;14.138;2022-12-18T05:14:12;23.17;;;7.17;;
4222;SDS011;2125;51.436;14.138;2022-12-18T05:16:39;23.57;;;7.20;;
4222;SDS011;2125;51.436;14.138;2022-12-18T05:19:05;13.33;;;4.73;;
4222;SDS011;2125;51.436;14.138;2022-12-18T05:21:32;28.53;;;8.73;;
4222;SDS011;2125;51.436;14.138;2022-12-18T05:24:00;21.53;;;7.30;;
4222;SDS011;2125;51.436;14.138;2022-12-18T05:26:26;27.30;;;4.83;;
4222;SDS011;2125;51.436;14.138;2022-12-18T05:28:53;21.47;;;7.10;;
4222;SDS011;2125;51.436;14.138;2022-12-18T05:31:20;18.73;;;6.70;;
4222;SDS011;2125;51.436;14.138;2022-12-18T05:33:49;15.77;;;5.93;;
4222;SDS011;2125;51.436;14.138;2022-12-18T05:36:16;24.27;;;7.30;;
4222;SDS011;2125;51.436;14.138;2022-12-18T05:38:43;17.93;;;7.17;;
4222;SDS011;2125;51.436;14.138;2022-12-18T05:41:11;21.23;;;8.33;;
4222;SDS011;2125;51.436;14.138;2022-12-18T05:43:38;25.93;;;7.30;;
4222;SDS011;2125;51.436;14.138;2022-12-18T05:46:05;26.63;;;8.20;;
4222;SDS011;2125;51.436;14.138;2022-12-18T05:48:33;20.17;;;6.50;;
4222;SDS011;2125;51.436;14.138;2022-12-18T05:51:04;21.17;;;6.30;;
4222;SDS011;2125;51.436;14.138;2022-12-18T05:53:33;17.90;;;6.40;;
4222;SDS011;2125;51.436;14.138;2022-12-18T05:56:01;26.60;;;6.30;;
4222;SDS011;2125;51.436;14.138;2022-12-18T05:58:33;21.83;;;7.30;;
4222;SDS011;2125;51.436;14.138;2022-12-18T06:01:05;20.80;;;6.07;;
4222;SDS011;2125;51.436;14.138;2022-12-18T06:03:36;21.23;;;6.60;;
4222;SDS011;2125;51.436;14.138;2022-12-18T06:06:02;25.80;;;8.70;;
4222;SDS011;2125;51.436;14.138;2022-12-18T06:08:29;29.37;;;6.47;;
4222;SDS011;2125;51.436;14.138;2022-12-18T06:10:56;22.27;;;7.03;;
4222;SDS011;2125;51.436;14.138;2022-12-18T06:13:23;19.17;;;6.50;;
4222;SDS011;2125;51.436;14.138;2022-12-18T06:15:51;18.13;;;6.80;;
4222;SDS011;2125;51.436;14.138;2022-12-18T06:18:17;22.87;;;6.80;;
4222;SDS011;2125;51.436;14.138;2022-12-18T06:20:44;27.57;;;6.40;;
4222;SDS011;2125;51.436;14.138;2022-12-18T06:23:10;17.57;;;5.60;;
4222;SDS011;2125;51.436;14.138;2022-12-18T06:25:39;23.00;;;7.20;;
4222;SDS011;2125;51.436;14.138;2022-12-18T06:28:05;23.17;;;6.40;;
4222;SDS011;2125;51.436;14.138;2022-12-18T06:30:32;37.90;;;8.47;;
4222;SDS011;2125;51.436;14.138;2022-12-18T06:33:00;18.07;;;5.10;;
4222;SDS011;2125;51.436;14.138;2022-12-18T06:35:27;20.43;;;6.40;;
4222;SDS011;2125;51.436;14.138;2022-12-18T06:37:53;19.27;;;6.13;;
4222;SDS011;2125;51.436;14.138;2022-12-18T06:40:20;43.13;;;11.77;;
4222;SDS011;2125;51.436;14.138;2022-12-18T06:42:47;46.23;;;14.27;;
4222;SDS011;2125;51.436;14.138;2022-12-18T06:45:13;80.23;;;22.30;;
4222;SDS011;2125;51.436;14.138;2022-12-18T06:47:40;45.80;;;13.50;;
4222;SDS011;2125;51.436;14.138;2022-12-18T06:50:08;47.90;;;16.90;;
4222;SDS011;2125;51.436;14.138;2022-12-18T06:52:35;46.70;;;16.30;;
4222;SDS011;2125;51.436;14.138;2022-12-18T06:55:02;43.90;;;16.07;;
4222;SDS011;2125;51.436;14.138;2022-12-18T06:57:29;66.10;;;20.40;;
4222;SDS011;2125;51.436;14.138;2022-12-18T06:59:56;32.23;;;9.30;;
4222;SDS011;2125;51.436;14.138;2022-12-18T07:02:22;19.60;;;6.80;;
4222;SDS011;2125;51.436;14.138;2022-12-18T07:04:49;18.53;;;5.63;;
4222;SDS011;2125;51.436;14.138;2022-12-18T07:07:17;24.03;;;6.00;;
4222;SDS011;2125;51.436;14.138;2022-12-18T07:09:43;17.97;;;6.10;;
4222;SDS011;2125;51.436;14.138;2022-12-18T07:12:10;25.67;;;6.77;;
4222;SDS011;2125;51.436;14.138;2022-12-18T07:14:37;27.40;;;7.90;;
4222;SDS011;2125;51.436;14.138;2022-12-18T07:17:03;25.80;;;6.87;;
4222;SDS011;2125;51.436;14.138;2022-12-18T07:19:30;17.63;;;6.07;;
4222;SDS011;2125;51.436;14.138;2022-12-18T07:21:56;16.20;;;5.70;;
4222;SDS011;2125;51.436;14.138;2022-12-18T07:24:24;12.00;;;5.53;;
4222;SDS011;2125;51.436;14.138;2022-12-18T07:26:51;19.43;;;5.53;;
4222;SDS011;2125;51.436;14.138;2022-12-18T07:29:18;16.37;;;5.40;;
4222;SDS011;2125;51.436;14.138;2022-12-18T07:31:44;15.57;;;4.80;;
4222;SDS011;2125;51.436;14.138;2022-12-18T07:34:11;12.87;;;5.00;;
4222;SDS011;2125;51.436;14.138;2022-12-18T07:36:41;15.70;;;5.03;;
4222;SDS011;2125;51.436;14.138;2022-12-18T07:39:08;20.03;;;5.47;;
4222;SDS011;2125;51.436;14.138;2022-12-18T07:41:37;23.03;;;7.70;;
4222;SDS011;2125;51.436;14.138;2022-12-18T07:44:08;14.13;;;5.47;;
4222;SDS011;2125;51.436;14.138;2022-12-18T07:46:38;18.50;;;6.00;;
4222;SDS011;2125;51.436;14.138;2022-12-18T07:49:05;27.13;;;7.50;;
4222;SDS011;2125;51.436;14.138;2022-12-18T07:51:31;18.07;;;7.07;;
4222;SDS011;2125;51.436;14.138;2022-12-18T07:53:58;21.13;;;6.17;;
4222;SDS011;2125;51.436;14.138;2022-12-18T07:56:25;17.67;;;5.10;;
4222;SDS011;2125;51.436;14.138;2022-12-18T07:58:52;20.33;;;6.13;;
4222;SDS011;2125;51.436;14.138;2022-12-18T08:01:19;16.90;;;5.23;;
4222;SDS011;2125;51.436;14.138;2022-12-18T08:03:46;15.30;;;4.87;;
4222;SDS011;2125;51.436;14.138;2022-12-18T08:06:13;21.63;;;6.37;;
4222;SDS011;2125;51.436;14.138;2022-12-18T08:08:39;15.80;;;5.13;;
4222;SDS011;2125;51.436;14.138;2022-12-18T08:11:07;16.13;;;6.23;;
4222;SDS011;2125;51.436;14.138;2022-12-18T08:13:33;19.80;;;6.40;;
4222;SDS011;2125;51.436;14.138;2022-12-18T08:16:03;16.17;;;6.40;;
4222;SDS011;2125;51.436;14.138;2022-12-18T08:21:08;29.70;;;9.73;;
4222;SDS011;2125;51.436;14.138;2022-12-18T08:23:37;47.03;;;13.40;;
4222;SDS011;2125;51.436;14.138;2022-12-18T08:26:04;96.63;;;27.67;;
4222;SDS011;2125;51.436;14.138;2022-12-18T08:28:31;154.03;;;38.83;;
4222;SDS011;2125;51.436;14.138;2022-12-18T08:30:59;118.43;;;27.47;;
4222;SDS011;2125;51.436;14.138;2022-12-18T08:33:30;95.93;;;25.33;;
4222;SDS011;2125;51.436;14.138;2022-12-18T08:35:57;70.03;;;20.13;;
4222;SDS011;2125;51.436;14.138;2022-12-18T08:38:25;34.93;;;9.13;;
4222;SDS011;2125;51.436;14.138;2022-12-18T08:40:57;32.40;;;10.00;;
4222;SDS011;2125;51.436;14.138;2022-12-18T08:43:30;140.70;;;35.83;;
4222;SDS011;2125;51.436;14.138;2022-12-18T08:46:24;61.63;;;20.20;;
4222;SDS011;2125;51.436;14.138;2022-12-18T08:49:06;26.70;;;8.17;;
4222;SDS011;2125;51.436;14.138;2022-12-18T08:51:36;39.37;;;11.27;;
4222;SDS011;2125;51.436;14.138;2022-12-18T08:54:06;68.90;;;19.83;;
4222;SDS011;2125;51.436;14.138;2022-12-18T08:56:33;31.50;;;11.07;;
4222;SDS011;2125;51.436;14.138;2022-12-18T08:59:00;27.17;;;7.83;;
4222;SDS011;2125;51.436;14.138;2022-12-18T09:01:29;24.47;;;8.30;;
4222;SDS011;2125;51.436;14.138;2022-12-18T09:04:01;32.17;;;9.47;;
4222;SDS011;2125;51.436;14.138;2022-12-18T09:06:29;30.20;;;7.23;;
4222;SDS011;2125;51.436;14.138;2022-12-18T09:09:01;26.03;;;7.90;;
4222;SDS011;2125;51.436;14.138;2022-12-18T09:11:41;24.10;;;7.33;;
4222;SDS011;2125;51.436;14.138;2022-12-18T09:14:18;19.97;;;6.70;;
4222;SDS011;2125;51.436;14.138;2022-12-18T09:16:49;22.37;;;6.67;;
4222;SDS011;2125;51.436;14.138;2022-12-18T09:19:16;22.60;;;6.83;;
4222;SDS011;2125;51.436;14.138;2022-12-18T09:21:51;20.80;;;7.23;;
4222;SDS011;2125;51.436;14.138;2022-12-18T09:24:25;26.73;;;6.73;;
4222;SDS011;2125;51.436;14.138;2022-12-18T09:26:54;31.60;;;7.10;;
4222;SDS011;2125;51.436;14.138;2022-12-18T09:29:27;21.93;;;7.30;;
4222;SDS011;2125;51.436;14.138;2022-12-18T09:31:55;19.00;;;6.80;;
4222;SDS011;2125;51.436;14.138;2022-12-18T09:34:22;22.77;;;7.07;;
4222;SDS011;2125;51.436;14.138;2022-12-18T09:36:50;23.87;;;6.93;;
4222;SDS011;2125;51.436;14.138;2022-12-18T09:39:17;22.23;;;6.47;;
4222;SDS011;2125;51.436;14.138;2022-12-18T09:41:44;24.20;;;7.00;;
4222;SDS011;2125;51.436;14.138;2022-12-18T09:44:18;26.17;;;8.00;;
4222;SDS011;2125;51.436;14.138;2022-12-18T09:46:52;18.87;;;6.77;;
4222;SDS011;2125;51.436;14.138;2022-12-18T09:49:24;23.23;;;6.57;;
4222;SDS011;2125;51.436;14.138;2022-12-18T09:51:57;25.37;;;6.63;;
4222;SDS011;2125;51.436;14.138;2022-12-18T09:54:31;12.90;;;5.37;;
4222;SDS011;2125;51.436;14.138;2022-12-18T09:57:02;20.00;;;6.93;;
4222;SDS011;2125;51.436;14.138;2022-12-18T09:59:30;17.20;;;6.53;;
4222;SDS011;2125;51.436;14.138;2022-12-18T10:02:05;20.37;;;6.43;;
4222;SDS011;2125;51.436;14.138;2022-12-18T10:04:39;15.07;;;6.00;;
4222;SDS011;2125;51.436;14.138;2022-12-18T10:07:08;22.70;;;6.60;;
4222;SDS011;2125;51.436;14.138;2022-12-18T10:09:42;18.67;;;5.60;;
4222;SDS011;2125;51.436;14.138;2022-12-18T10:12:16;24.90;;;7.93;;
4222;SDS011;2125;51.436;14.138;2022-12-18T10:14:49;20.57;;;6.27;;
4222;SDS011;2125;51.436;14.138;2022-12-18T10:17:40;19.40;;;5.63;;
4222;SDS011;2125;51.436;14.138;2022-12-18T10:23:37;16.80;;;5.67;;
4222;SDS011;2125;51.436;14.138;2022-12-18T10:26:41;16.53;;;5.93;;
4222;SDS011;2125;51.436;14.138;2022-12-18T10:29:29;20.00;;;5.70;;
4222;SDS011;2125;51.436;14.138;2022-12-18T10:31:56;16.97;;;5.70;;
4222;SDS011;2125;51.436;14.138;2022-12-18T10:34:23;26.30;;;7.03;;
4222;SDS011;2125;51.436;14.138;2022-12-18T10:36:50;16.80;;;6.30;;
4222;SDS011;2125;51.436;14.138;2022-12-18T10:39:20;19.57;;;6.40;;
4222;SDS011;2125;51.436;14.138;2022-12-18T10:41:51;19.60;;;6.73;;
4222;SDS011;2125;51.436;14.138;2022-12-18T10:44:48;18.53;;;6.07;;
4222;SDS011;2125;51.436;14.138;2022-12-18T10:47:58;17.47;;;5.60;;
4222;SDS011;2125;51.436;14.138;2022-12-18T11:08:58;19.63;;;5.17;;
4222;SDS011;2125;51.436;14.138;2022-12-18T11:11:27;21.33;;;7.00;;
4222;SDS011;2125;51.436;14.138;2022-12-18T11:13:58;19.63;;;5.90;;
4222;SDS011;2125;51.436;14.138;2022-12-18T11:16:32;22.87;;;6.53;;
4222;SDS011;2125;51.436;14.138;2022-12-18T11:19:13;24.17;;;6.60;;
4222;SDS011;2125;51.436;14.138;2022-12-18T11:21:47;26.10;;;6.40;;
4222;SDS011;2125;51.436;14.138;2022-12-18T11:24:17;16.77;;;5.93;;
4222;SDS011;2125;51.436;14.138;2022-12-18T11:26:48;20.70;;;7.33;;
4222;SDS011;2125;51.436;14.138;2022-12-18T11:29:17;19.87;;;7.07;;
4222;SDS011;2125;51.436;14.138;2022-12-18T11:31:50;16.40;;;5.50;;
4222;SDS011;2125;51.436;14.138;2022-12-18T11:34:34;22.30;;;6.67;;
4222;SDS011;2125;51.436;14.138;2022-12-18T11:37:03;19.37;;;6.33;;
4222;SDS011;2125;51.436;14.138;2022-12-18T11:39:32;18.27;;;6.60;;
4222;SDS011;2125;51.436;14.138;2022-12-18T11:42:04;18.23;;;6.40;;
4222;SDS011;2125;51.436;14.138;2022-12-18T11:44:41;10.33;;;4.80;;
4222;SDS011;2125;51.436;14.138;2022-12-18T11:47:13;14.27;;;6.03;;
4222;SDS011;2125;51.436;14.138;2022-12-18T11:49:50;21.37;;;5.97;;
4222;SDS011;2125;51.436;14.138;2022-12-18T11:52:19;16.40;;;5.30;;
4222;SDS011;2125;51.436;14.138;2022-12-18T11:54:58;23.73;;;7.20;;
4222;SDS011;2125;51.436;14.138;2022-12-18T11:57:30;18.90;;;5.63;;
4222;SDS011;2125;51.436;14.138;2022-12-18T12:00:12;14.37;;;5.40;;
4222;SDS011;2125;51.436;14.138;2022-12-18T12:05:51;18.13;;;6.20;;
4222;SDS011;2125;51.436;14.138;2022-12-18T12:08:28;16.33;;;4.83;;
4222;SDS011;2125;51.436;14.138;2022-12-18T12:11:05;24.50;;;7.00;;
4222;SDS011;2125;51.436;14.138;2022-12-18T12:13:41;22.20;;;7.60;;
4222;SDS011;2125;51.436;14.138;2022-12-18T12:19:41;18.90;;;5.00;;
4222;SDS011;2125;51.436;14.138;2022-12-18T12:22:21;14.30;;;4.90;;
4222;SDS011;2125;51.436;14.138;2022-12-18T12:24:56;22.60;;;6.10;;
4222;SDS011;2125;51.436;14.138;2022-12-18T12:27:36;24.10;;;5.20;;
4222;SDS011;2125;51.436;14.138;2022-12-18T12:30:11;14.80;;;5.40;;
4222;SDS011;2125;51.436;14.138;2022-12-18T12:32:45;18.77;;;6.53;;
4222;SDS011;2125;51.436;14.138;2022-12-18T12:35:27;20.87;;;6.67;;
4222;SDS011;2125;51.436;14.138;2022-12-18T12:38:05;27.80;;;6.60;;
4222;SDS011;2125;51.436;14.138;2022-12-18T12:40:37;14.17;;;5.60;;
4222;SDS011;2125;51.436;14.138;2022-12-18T12:43:10;17.23;;;4.73;;
4222;SDS011;2125;51.436;14.138;2022-12-18T12:45:46;20.53;;;6.60;;
4222;SDS011;2125;51.436;14.138;2022-12-18T12:48:19;14.03;;;5.23;;
4222;SDS011;2125;51.436;14.138;2022-12-18T12:50:54;18.03;;;6.50;;
4222;SDS011;2125;51.436;14.138;2022-12-18T12:53:25;20.70;;;6.67;;
4222;SDS011;2125;51.436;14.138;2022-12-18T12:55:55;19.13;;;5.23;;
4222;SDS011;2125;51.436;14.138;2022-12-18T12:58:25;14.37;;;5.47;;
4222;SDS011;2125;51.436;14.138;2022-12-18T13:03:28;21.20;;;6.07;;
4222;SDS011;2125;51.436;14.138;2022-12-18T13:06:04;15.13;;;4.97;;
4222;SDS011;2125;51.436;14.138;2022-12-18T13:08:53;18.20;;;5.83;;
4222;SDS011;2125;51.436;14.138;2022-12-18T13:12:08;13.97;;;5.20;;
4222;SDS011;2125;51.436;14.138;2022-12-18T13:15:11;15.10;;;5.27;;
4222;SDS011;2125;51.436;14.138;2022-12-18T13:18:02;15.07;;;4.97;;
4222;SDS011;2125;51.436;14.138;2022-12-18T13:20:33;14.40;;;4.90;;
4222;SDS011;2125;51.436;14.138;2022-12-18T13:25:56;14.83;;;4.60;;
4222;SDS011;2125;51.436;14.138;2022-12-18T13:28:37;18.60;;;6.00;;
4222;SDS011;2125;51.436;14.138;2022-12-18T13:34:48;17.37;;;4.67;;
4222;SDS011;2125;51.436;14.138;2022-12-18T13:37:39;13.63;;;4.73;;
4222;SDS011;2125;51.436;14.138;2022-12-18T13:43:32;16.37;;;5.67;;
4222;SDS011;2125;51.436;14.138;2022-12-18T13:46:02;16.00;;;5.50;;
4222;SDS011;2125;51.436;14.138;2022-12-18T13:48:48;18.03;;;6.13;;
4222;SDS011;2125;51.436;14.138;2022-12-18T13:52:14;19.40;;;5.23;;
4222;SDS011;2125;51.436;14.138;2022-12-18T13:56:58;18.43;;;5.17;;
4222;SDS011;2125;51.436;14.138;2022-12-18T13:58:05;19.07;;;4.73;;
4222;SDS011;2125;51.436;14.138;2022-12-18T14:00:34;13.63;;;4.93;;
4222;SDS011;2125;51.436;14.138;2022-12-18T14:03:01;14.97;;;4.87;;
4222;SDS011;2125;51.436;14.138;2022-12-18T14:05:33;14.80;;;4.77;;
4222;SDS011;2125;51.436;14.138;2022-12-18T14:08:05;14.73;;;5.80;;
4222;SDS011;2125;51.436;14.138;2022-12-18T14:10:39;13.93;;;5.60;;
4222;SDS011;2125;51.436;14.138;2022-12-18T14:13:15;14.10;;;5.20;;
4222;SDS011;2125;51.436;14.138;2022-12-18T14:15:53;14.80;;;4.77;;
4222;SDS011;2125;51.436;14.138;2022-12-18T14:18:25;14.03;;;5.20;;
4222;SDS011;2125;51.436;14.138;2022-12-18T14:20:56;18.30;;;4.90;;
4222;SDS011;2125;51.436;14.138;2022-12-18T14:23:30;16.30;;;5.00;;
4222;SDS011;2125;51.436;14.138;2022-12-18T14:29:19;18.83;;;6.23;;
4222;SDS011;2125;51.436;14.138;2022-12-18T14:34:31;16.73;;;5.40;;
4222;SDS011;2125;51.436;14.138;2022-12-18T14:36:58;15.90;;;5.30;;
4222;SDS011;2125;51.436;14.138;2022-12-18T14:39:25;18.50;;;6.40;;
4222;SDS011;2125;51.436;14.138;2022-12-18T14:41:52;15.67;;;5.20;;
4222;SDS011;2125;51.436;14.138;2022-12-18T14:44:18;15.53;;;5.90;;
4222;SDS011;2125;51.436;14.138;2022-12-18T14:46:46;18.10;;;5.57;;
4222;SDS011;2125;51.436;14.138;2022-12-18T14:49:19;20.33;;;6.23;;
4222;SDS011;2125;51.436;14.138;2022-12-18T14:51:49;18.77;;;6.47;;
4222;SDS011;2125;51.436;14.138;2022-12-18T14:54:18;16.20;;;5.20;;
4222;SDS011;2125;51.436;14.138;2022-12-18T14:56:46;18.40;;;5.67;;
4222;SDS011;2125;51.436;14.138;2022-12-18T14:59:16;24.90;;;7.50;;
4222;SDS011;2125;51.436;14.138;2022-12-18T15:01:45;17.33;;;5.77;;
4222;SDS011;2125;51.436;14.138;2022-12-18T15:04:24;26.53;;;6.90;;
4222;SDS011;2125;51.436;14.138;2022-12-18T15:07:04;23.40;;;6.03;;
4222;SDS011;2125;51.436;14.138;2022-12-18T15:09:34;21.70;;;6.00;;
4222;SDS011;2125;51.436;14.138;2022-12-18T15:12:01;21.27;;;5.80;;
4222;SDS011;2125;51.436;14.138;2022-12-18T15:14:32;30.07;;;7.30;;
4222;SDS011;2125;51.436;14.138;2022-12-18T15:17:01;17.70;;;5.90;;
4222;SDS011;2125;51.436;14.138;2022-12-18T15:19:37;16.07;;;5.70;;
4222;SDS011;2125;51.436;14.138;2022-12-18T15:22:14;23.30;;;6.43;;
4222;SDS011;2125;51.436;14.138;2022-12-18T15:24:45;17.07;;;5.83;;
4222;SDS011;2125;51.436;14.138;2022-12-18T15:27:21;19.30;;;6.53;;
4222;SDS011;2125;51.436;14.138;2022-12-18T15:29:59;24.60;;;7.20;;
4222;SDS011;2125;51.436;14.138;2022-12-18T15:32:27;16.93;;;5.60;;
4222;SDS011;2125;51.436;14.138;2022-12-18T15:35:02;19.63;;;6.57;;
4222;SDS011;2125;51.436;14.138;2022-12-18T15:37:37;24.33;;;7.63;;
4222;SDS011;2125;51.436;14.138;2022-12-18T15:40:04;33.47;;;8.00;;
4222;SDS011;2125;51.436;14.138;2022-12-18T15:42:32;26.73;;;7.87;;
4222;SDS011;2125;51.436;14.138;2022-12-18T15:45:16;25.97;;;6.90;;
4222;SDS011;2125;51.436;14.138;2022-12-18T15:47:45;18.23;;;6.53;;
4222;SDS011;2125;51.436;14.138;2022-12-18T15:50:13;21.97;;;6.80;;
4222;SDS011;2125;51.436;14.138;2022-12-18T15:52:40;27.10;;;9.07;;
4222;SDS011;2125;51.436;14.138;2022-12-18T15:55:10;25.00;;;7.17;;
4222;SDS011;2125;51.436;14.138;2022-12-18T15:57:55;23.10;;;7.93;;
4222;SDS011;2125;51.436;14.138;2022-12-18T16:00:22;30.13;;;7.73;;